Time,TemperatureF,DewpointF,PressureIn,WindDirection,WindDirectionDegrees,WindSpeedMPH,WindSpeedGustMPH,Humidity,HourlyPrecipIn,Conditions,Clouds,dailyrainin,SoftwareType,DateUTC
2013-02-24 00:00:00,27.5,25.0,29.88,West,263,0.0,0.0,90,0.00,,---,0.00,VWS V14.00,2013-02-24 05:00:00,
2013-02-24 00:05:00,27.3,24.5,29.88,West,263,0.0,0.0,89,0.00,,---,0.00,VWS V14.00,2013-02-24 05:05:00,
2013-02-24 00:10:00,27.2,24.7,29.89,West,263,0.0,0.0,90,0.00,,---,0.00,VWS V14.00,2013-02-24 05:10:00,
2013-02-24 00:15:00,27.0,24.5,29.89,West,263,0.0,0.0,90,0.00,,---,0.00,VWS V14.00,2013-02-24 05:15:00,
2013-02-24 00:20:00,26.9,24.4,29.90,West,263,0.0,0.0,90,0.00,,---,0.00,VWS V14.00,2013-02-24 05:20:00,
2013-02-24 00:25:00,26.8,24.3,29.90,West,263,0.0,0.0,90,0.00,,---,0.00,VWS V14.00,2013-02-24 05:25:00,
2013-02-24 00:30:00,26.6,24.1,29.90,West,263,0.0,0.0,90,0.00,,---,0.00,VWS V14.00,2013-02-24 05:30:00,
2013-02-24 00:35:00,26.5,24.0,29.90,West,263,0.0,0.0,90,0.00,,---,0.00,VWS V14.00,2013-02-24 05:35:00,
2013-02-24 00:40:00,26.4,23.9,29.90,West,263,0.0,0.0,90,0.00,,---,0.00,VWS V14.00,2013-02-24 05:40:00,
2013-02-24 00:45:00,26.3,23.8,29.90,West,263,0.0,0.0,90,0.00,,---,0.00,VWS V14.00,2013-02-24 05:45:00,
2013-02-24 00:50:00,26.1,23.6,29.91,West,263,0.0,0.0,90,0.00,,---,0.00,VWS V14.00,2013-02-24 05:50:00,
2013-02-24 00:55:00,26.1,23.6,29.91,West,263,0.0,0.0,90,0.00,,---,0.00,VWS V14.00,2013-02-24 05:55:00,
2013-02-24 01:00:00,26.0,23.5,29.91,West,263,0.0,0.0,90,0.00,,---,0.00,VWS V14.00,2013-02-24 06:00:00,
2013-02-24 01:05:00,25.9,23.4,29.91,West,263,0.0,0.0,90,0.00,,---,0.00,VWS V14.00,2013-02-24 06:05:00,
2013-02-24 01:10:00,25.8,23.3,29.91,West,263,0.0,0.0,90,0.00,,---,0.00,VWS V14.00,2013-02-24 06:10:00,
2013-02-24 01:15:00,25.8,23.5,29.91,West,263,0.0,0.0,91,0.00,,---,0.00,VWS V14.00,2013-02-24 06:15:00,
2013-02-24 01:20:00,25.8,23.5,29.91,West,263,0.0,0.0,91,0.00,,---,0.00,VWS V14.00,2013-02-24 06:20:00,
2013-02-24 01:25:00,25.8,23.5,29.92,West,263,0.0,0.0,91,0.00,,---,0.00,VWS V14.00,2013-02-24 06:25:00,
2013-02-24 01:30:00,25.9,23.6,29.92,West,263,0.0,0.0,91,0.00,,---,0.00,VWS V14.00,2013-02-24 06:30:00,
2013-02-24 01:35:00,25.9,23.6,29.92,West,263,0.0,0.0,91,0.00,,---,0.00,VWS V14.00,2013-02-24 06:35:00,
2013-02-24 01:40:00,25.9,23.6,29.92,West,263,0.0,0.0,91,0.00,,---,0.00,VWS V14.00,2013-02-24 06:40:00,
2013-02-24 01:45:00,25.9,23.6,29.92,West,263,0.0,0.0,91,0.00,,---,0.00,VWS V14.00,2013-02-24 06:45:00,
2013-02-24 01:50:00,26.0,23.7,29.93,West,263,0.0,0.0,91,0.00,,---,0.00,VWS V14.00,2013-02-24 06:50:00,
2013-02-24 01:55:00,26.0,23.7,29.92,West,263,0.0,0.0,91,0.00,,---,0.00,VWS V14.00,2013-02-24 06:55:00,
2013-02-24 02:00:00,26.0,23.7,29.93,West,263,0.0,0.0,91,0.00,,---,0.00,VWS V14.00,2013-02-24 07:00:00,
2013-02-24 02:05:00,26.0,23.7,29.93,West,263,0.0,0.0,91,0.00,,---,0.00,VWS V14.00,2013-02-24 07:05:00,
2013-02-24 02:10:00,26.0,23.7,29.92,West,263,0.0,0.0,91,0.00,,---,0.00,VWS V14.00,2013-02-24 07:10:00,
2013-02-24 02:15:00,26.0,24.0,29.92,West,263,0.0,0.0,92,0.00,,---,0.00,VWS V14.00,2013-02-24 07:15:00,
2013-02-24 02:20:00,26.0,24.0,29.92,West,263,0.0,0.0,92,0.00,,---,0.00,VWS V14.00,2013-02-24 07:20:00,
2013-02-24 02:25:00,25.9,23.6,29.92,West,263,0.0,0.0,91,0.00,,---,0.00,VWS V14.00,2013-02-24 07:25:00,
2013-02-24 02:30:00,25.9,23.6,29.92,West,263,0.0,0.0,91,0.00,,---,0.00,VWS V14.00,2013-02-24 07:30:00,
2013-02-24 02:35:00,25.8,23.5,29.92,West,263,0.0,0.0,91,0.00,,---,0.00,VWS V14.00,2013-02-24 07:35:00,
2013-02-24 02:40:00,25.8,23.5,29.92,West,263,0.0,0.0,91,0.00,,---,0.00,VWS V14.00,2013-02-24 07:40:00,
2013-02-24 02:45:00,25.8,23.8,29.93,West,263,0.0,0.0,92,0.00,,---,0.00,VWS V14.00,2013-02-24 07:45:00,
2013-02-24 02:50:00,25.7,23.7,29.92,West,263,0.0,0.0,92,0.00,,---,0.00,VWS V14.00,2013-02-24 07:50:00,
2013-02-24 02:55:00,25.7,23.7,29.92,West,263,0.0,0.0,92,0.00,,---,0.00,VWS V14.00,2013-02-24 07:55:00,
2013-02-24 03:00:00,25.6,23.6,29.92,West,263,0.0,0.0,92,0.00,,---,0.00,VWS V14.00,2013-02-24 08:00:00,
2013-02-24 03:05:00,25.6,23.6,29.92,West,263,0.0,0.0,92,0.00,,---,0.00,VWS V14.00,2013-02-24 08:05:00,
2013-02-24 03:10:00,25.6,23.6,29.91,West,263,0.0,0.0,92,0.00,,---,0.00,VWS V14.00,2013-02-24 08:10:00,
2013-02-24 03:15:00,25.5,23.5,29.91,West,263,0.0,0.0,92,0.00,,---,0.00,VWS V14.00,2013-02-24 08:15:00,
2013-02-24 03:20:00,25.4,23.4,29.91,West,263,0.0,0.0,92,0.00,,---,0.00,VWS V14.00,2013-02-24 08:20:00,
2013-02-24 03:25:00,25.4,23.4,29.92,West,263,0.0,0.0,92,0.00,,---,0.00,VWS V14.00,2013-02-24 08:25:00,
2013-02-24 03:30:00,25.3,23.3,29.91,West,263,0.0,0.0,92,0.00,,---,0.00,VWS V14.00,2013-02-24 08:30:00,
2013-02-24 03:35:00,25.3,23.3,29.92,West,263,0.0,0.0,92,0.00,,---,0.00,VWS V14.00,2013-02-24 08:35:00,
2013-02-24 03:40:00,25.2,23.2,29.92,West,263,0.0,0.0,92,0.00,,---,0.00,VWS V14.00,2013-02-24 08:40:00,
2013-02-24 03:45:00,25.1,23.1,29.92,West,263,0.0,0.0,92,0.00,,---,0.00,VWS V14.00,2013-02-24 08:45:00,
2013-02-24 03:50:00,25.0,23.0,29.92,West,263,0.0,0.0,92,0.00,,---,0.00,VWS V14.00,2013-02-24 08:50:00,
2013-02-24 03:55:00,24.9,22.9,29.92,West,263,0.0,0.0,92,0.00,,---,0.00,VWS V14.00,2013-02-24 08:55:00,
2013-02-24 04:00:00,24.8,22.8,29.92,West,263,0.0,0.0,92,0.00,,---,0.00,VWS V14.00,2013-02-24 09:00:00,
2013-02-24 04:05:00,24.7,22.7,29.92,West,263,0.0,0.0,92,0.00,,---,0.00,VWS V14.00,2013-02-24 09:05:00,
2013-02-24 04:10:00,24.6,22.6,29.92,West,263,0.0,0.0,92,0.00,,---,0.00,VWS V14.00,2013-02-24 09:10:00,
2013-02-24 04:15:00,24.5,22.5,29.92,West,263,0.0,0.0,92,0.00,,---,0.00,VWS V14.00,2013-02-24 09:15:00,
2013-02-24 04:20:00,24.4,22.4,29.93,West,263,0.0,0.0,92,0.00,,---,0.00,VWS V14.00,2013-02-24 09:20:00,
2013-02-24 04:25:00,24.3,22.3,29.93,West,263,0.0,0.0,92,0.00,,---,0.00,VWS V14.00,2013-02-24 09:25:00,
2013-02-24 04:30:00,24.2,22.2,29.93,West,263,0.0,0.0,92,0.00,,---,0.00,VWS V14.00,2013-02-24 09:30:00,
2013-02-24 04:35:00,24.1,22.1,29.93,West,263,0.0,0.0,92,0.00,,---,0.00,VWS V14.00,2013-02-24 09:35:00,
2013-02-24 04:40:00,24.0,22.0,29.93,West,263,0.0,0.0,92,0.00,,---,0.00,VWS V14.00,2013-02-24 09:40:00,
2013-02-24 04:45:00,24.0,22.0,29.93,West,263,0.0,0.0,92,0.00,,---,0.00,VWS V14.00,2013-02-24 09:45:00,
2013-02-24 04:50:00,23.9,21.9,29.93,West,263,0.0,0.0,92,0.00,,---,0.00,VWS V14.00,2013-02-24 09:50:00,
2013-02-24 04:55:00,23.9,21.9,29.93,West,263,0.0,0.0,92,0.00,,---,0.00,VWS V14.00,2013-02-24 09:55:00,
2013-02-24 05:00:00,24.0,22.0,29.94,West,263,0.0,0.0,92,0.00,,---,0.00,VWS V14.00,2013-02-24 10:00:00,
2013-02-24 05:05:00,24.1,22.1,29.94,West,263,0.0,0.0,92,0.00,,---,0.00,VWS V14.00,2013-02-24 10:05:00,
2013-02-24 05:10:00,24.2,22.2,29.94,West,263,0.0,0.0,92,0.00,,---,0.00,VWS V14.00,2013-02-24 10:10:00,
2013-02-24 05:15:00,24.3,22.6,29.94,West,263,0.0,0.0,93,0.00,,---,0.00,VWS V14.00,2013-02-24 10:15:00,
2013-02-24 05:20:00,24.5,22.8,29.94,West,263,0.0,0.0,93,0.00,,---,0.00,VWS V14.00,2013-02-24 10:20:00,
2013-02-24 05:25:00,24.7,23.0,29.95,West,263,0.0,0.0,93,0.00,,---,0.00,VWS V14.00,2013-02-24 10:25:00,
2013-02-24 05:30:00,24.8,23.1,29.94,West,263,0.0,0.0,93,0.00,,---,0.00,VWS V14.00,2013-02-24 10:30:00,
2013-02-24 05:35:00,25.0,23.3,29.94,West,263,0.0,0.0,93,0.00,,---,0.00,VWS V14.00,2013-02-24 10:35:00,
2013-02-24 05:40:00,25.2,25.2,29.95,West,263,0.0,0.0,100,0.00,,---,0.00,VWS V14.00,2013-02-24 10:40:00,
2013-02-24 05:45:00,25.4,23.7,29.95,West,263,0.0,0.0,93,0.00,,---,0.00,VWS V14.00,2013-02-24 10:45:00,
2013-02-24 05:50:00,25.6,23.9,29.95,West,263,0.0,0.0,93,0.00,,---,0.00,VWS V14.00,2013-02-24 10:50:00,
2013-02-24 05:55:00,25.8,24.1,29.95,West,263,0.0,0.0,93,0.00,,---,0.00,VWS V14.00,2013-02-24 10:55:00,
2013-02-24 06:00:00,25.9,24.2,29.94,West,263,0.0,0.0,93,0.00,,---,0.00,VWS V14.00,2013-02-24 11:00:00,
2013-02-24 06:05:00,26.1,24.4,29.94,West,263,0.0,0.0,93,0.00,,---,0.00,VWS V14.00,2013-02-24 11:05:00,
2013-02-24 06:10:00,26.2,24.5,29.95,West,263,0.0,0.0,93,0.00,,---,0.00,VWS V14.00,2013-02-24 11:10:00,
2013-02-24 06:15:00,26.4,24.6,29.95,West,263,0.0,0.0,93,0.00,,---,0.00,VWS V14.00,2013-02-24 11:15:00,
2013-02-24 06:20:00,26.6,24.9,29.95,West,263,0.0,0.0,93,0.00,,---,0.00,VWS V14.00,2013-02-24 11:20:00,
2013-02-24 06:25:00,26.7,25.2,29.95,West,263,0.0,0.0,94,0.00,,---,0.00,VWS V14.00,2013-02-24 11:25:00,
2013-02-24 06:30:00,26.8,25.0,29.95,West,263,0.0,0.0,93,0.00,,---,0.00,VWS V14.00,2013-02-24 11:30:00,
2013-02-24 06:35:00,26.9,25.4,29.95,West,263,0.0,0.0,94,0.00,,---,0.00,VWS V14.00,2013-02-24 11:35:00,
2013-02-24 06:40:00,27.0,25.5,29.95,West,263,0.0,0.0,94,0.00,,---,0.00,VWS V14.00,2013-02-24 11:40:00,
2013-02-24 06:45:00,27.1,25.6,29.96,West,263,0.0,0.0,94,0.00,,---,0.00,VWS V14.00,2013-02-24 11:45:00,
2013-02-24 06:50:00,27.3,25.8,29.96,West,263,0.0,0.0,94,0.00,,---,0.00,VWS V14.00,2013-02-24 11:50:00,
2013-02-24 06:55:00,27.4,25.9,29.97,West,263,0.0,0.0,94,0.00,,---,0.00,VWS V14.00,2013-02-24 11:55:00,
2013-02-24 07:00:00,27.5,26.0,29.97,West,263,0.0,0.0,94,0.00,,---,0.00,VWS V14.00,2013-02-24 12:00:00,
2013-02-24 07:05:00,27.6,26.1,29.97,West,263,0.0,0.0,94,0.00,,---,0.00,VWS V14.00,2013-02-24 12:05:00,
2013-02-24 07:10:00,27.6,26.1,29.97,West,263,0.0,0.0,94,0.00,,---,0.00,VWS V14.00,2013-02-24 12:10:00,
2013-02-24 07:15:00,27.7,26.2,29.97,West,263,0.0,0.0,94,0.00,,---,0.00,VWS V14.00,2013-02-24 12:15:00,
2013-02-24 07:20:00,27.8,26.3,29.98,West,263,0.0,0.0,94,0.00,,---,0.00,VWS V14.00,2013-02-24 12:20:00,
2013-02-24 07:25:00,27.9,26.4,29.98,West,263,0.0,0.0,94,0.00,,---,0.00,VWS V14.00,2013-02-24 12:25:00,
2013-02-24 07:30:00,27.9,26.4,29.98,West,263,0.0,0.0,94,0.00,,---,0.00,VWS V14.00,2013-02-24 12:30:00,
2013-02-24 07:35:00,28.0,26.5,29.98,West,263,0.0,0.0,94,0.00,,---,0.00,VWS V14.00,2013-02-24 12:35:00,
2013-02-24 07:40:00,28.1,26.6,29.98,West,263,0.0,0.0,94,0.00,,---,0.00,VWS V14.00,2013-02-24 12:40:00,
2013-02-24 07:45:00,28.1,26.6,29.98,West,263,0.0,0.0,94,0.00,,---,0.00,VWS V14.00,2013-02-24 12:45:00,
2013-02-24 07:50:00,28.2,26.7,29.98,West,263,0.0,0.0,94,0.00,,---,0.00,VWS V14.00,2013-02-24 12:50:00,
2013-02-24 07:55:00,28.3,26.8,29.98,West,263,0.0,0.0,94,0.00,,---,0.00,VWS V14.00,2013-02-24 12:55:00,
2013-02-24 08:00:00,28.4,26.9,29.98,West,263,1.0,1.0,94,0.00,,---,0.00,VWS V14.00,2013-02-24 13:00:00,
2013-02-24 08:05:00,28.5,27.0,29.98,West,263,0.0,0.0,94,0.00,,---,0.00,VWS V14.00,2013-02-24 13:05:00,
2013-02-24 08:10:00,28.6,27.1,29.98,West,263,0.0,0.0,94,0.00,,---,0.00,VWS V14.00,2013-02-24 13:10:00,
2013-02-24 08:15:00,28.7,27.2,29.99,SSW,209,0.0,0.0,94,0.00,,---,0.00,VWS V14.00,2013-02-24 13:15:00,
2013-02-24 08:20:00,28.8,27.3,29.99,SSW,209,0.0,0.0,94,0.00,,---,0.00,VWS V14.00,2013-02-24 13:20:00,
2013-02-24 08:25:00,28.9,27.4,29.98,West,277,0.0,0.0,94,0.00,,---,0.00,VWS V14.00,2013-02-24 13:25:00,
2013-02-24 08:30:00,29.0,27.5,29.99,West,277,0.0,1.0,94,0.00,,---,0.00,VWS V14.00,2013-02-24 13:30:00,
2013-02-24 08:35:00,29.2,27.7,29.98,West,277,2.0,2.0,94,0.00,,---,0.00,VWS V14.00,2013-02-24 13:35:00,
2013-02-24 08:40:00,29.3,27.8,29.99,WSW,252,1.0,1.0,94,0.00,,---,0.00,VWS V14.00,2013-02-24 13:40:00,
2013-02-24 08:45:00,29.4,27.9,30.00,WSW,251,1.0,2.0,94,0.00,,---,0.00,VWS V14.00,2013-02-24 13:45:00,
2013-02-24 08:50:00,29.5,28.0,30.00,WSW,250,0.0,0.0,94,0.00,,---,0.00,VWS V14.00,2013-02-24 13:50:00,
2013-02-24 08:55:00,29.6,28.1,30.00,WSW,250,0.0,1.0,94,0.00,,---,0.00,VWS V14.00,2013-02-24 13:55:00,
2013-02-24 09:00:00,29.6,28.1,30.00,South,188,1.0,1.0,94,0.00,,---,0.00,VWS V14.00,2013-02-24 14:00:00,
2013-02-24 09:05:00,29.8,28.3,30.00,West,271,0.0,3.0,94,0.00,,---,0.00,VWS V14.00,2013-02-24 14:05:00,
2013-02-24 09:10:00,29.8,28.0,30.00,SSW,212,0.0,0.0,93,0.00,,---,0.00,VWS V14.00,2013-02-24 14:10:00,
2013-02-24 09:15:00,29.9,28.1,30.00,WSW,252,0.0,0.0,93,0.00,,---,0.00,VWS V14.00,2013-02-24 14:15:00,
2013-02-24 09:20:00,29.9,28.1,30.00,WSW,249,0.0,3.0,93,0.00,,---,0.00,VWS V14.00,2013-02-24 14:20:00,
2013-02-24 09:25:00,30.0,28.2,30.01,SW,223,0.0,1.0,93,0.00,,---,0.00,VWS V14.00,2013-02-24 14:25:00,
2013-02-24 09:30:00,30.0,28.2,30.01,WNW,282,1.0,1.0,93,0.00,,---,0.00,VWS V14.00,2013-02-24 14:30:00,
2013-02-24 09:35:00,30.1,28.1,30.01,SW,215,0.0,1.0,92,0.00,,---,0.00,VWS V14.00,2013-02-24 14:35:00,
2013-02-24 09:40:00,30.1,28.1,30.01,NW,321,0.0,0.0,92,0.00,,---,0.00,VWS V14.00,2013-02-24 14:40:00,
2013-02-24 09:45:00,30.2,28.2,30.01,SW,229,1.0,2.0,92,0.00,,---,0.00,VWS V14.00,2013-02-24 14:45:00,
2013-02-24 09:50:00,30.2,28.2,30.00,WSW,243,1.0,3.0,92,0.00,,---,0.00,VWS V14.00,2013-02-24 14:50:00,
2013-02-24 09:55:00,30.3,28.3,30.00,West,276,3.0,4.0,92,0.00,,---,0.00,VWS V14.00,2013-02-24 14:55:00,
2013-02-24 10:00:00,30.3,28.0,30.00,South,180,0.0,1.0,91,0.00,,---,0.00,VWS V14.00,2013-02-24 15:00:00,
2013-02-24 10:05:00,30.4,28.1,30.01,South,176,0.0,2.0,91,0.00,,---,0.00,VWS V14.00,2013-02-24 15:05:00,
2013-02-24 10:10:00,30.5,28.2,30.00,SW,221,1.0,1.0,91,0.00,,---,0.00,VWS V14.00,2013-02-24 15:10:00,
2013-02-24 10:15:00,30.6,28.3,30.01,WNW,288,0.0,2.0,91,0.00,,---,0.00,VWS V14.00,2013-02-24 15:15:00,
2013-02-24 10:20:00,30.7,28.4,30.01,South,191,0.0,1.0,91,0.00,,---,0.00,VWS V14.00,2013-02-24 15:20:00,
2013-02-24 10:25:00,30.7,28.1,30.01,SW,219,0.0,7.0,90,0.00,,---,0.00,VWS V14.00,2013-02-24 15:25:00,
2013-02-24 10:30:00,30.7,28.1,30.01,SW,217,0.0,1.0,90,0.00,,---,0.00,VWS V14.00,2013-02-24 15:30:00,
2013-02-24 10:35:00,30.8,28.2,30.01,West,260,1.0,1.0,90,0.00,,---,0.00,VWS V14.00,2013-02-24 15:35:00,
2013-02-24 10:40:00,30.8,28.0,30.01,West,265,0.0,5.0,89,0.00,,---,0.00,VWS V14.00,2013-02-24 15:40:00,
2013-02-24 10:45:00,30.7,27.9,30.01,SW,230,1.0,4.0,89,0.00,,---,0.00,VWS V14.00,2013-02-24 15:45:00,
2013-02-24 10:50:00,30.7,27.6,30.01,SSW,209,0.0,4.0,88,0.00,,---,0.00,VWS V14.00,2013-02-24 15:50:00,
2013-02-24 10:55:00,30.6,27.2,30.01,SW,214,2.0,4.0,87,0.00,,---,0.00,VWS V14.00,2013-02-24 15:55:00,
2013-02-24 11:00:00,30.6,27.2,30.01,South,191,0.0,0.0,87,0.00,,---,0.00,VWS V14.00,2013-02-24 16:00:00,
2013-02-24 11:05:00,30.7,27.3,30.01,South,185,1.0,1.0,87,0.00,,---,0.00,VWS V14.00,2013-02-24 16:05:00,
2013-02-24 11:10:00,30.7,27.3,30.01,SSW,206,1.0,3.0,87,0.00,,---,0.00,VWS V14.00,2013-02-24 16:10:00,
2013-02-24 11:15:00,30.7,27.0,30.02,WSW,240,0.0,5.0,86,0.00,,---,0.00,VWS V14.00,2013-02-24 16:15:00,
2013-02-24 11:20:00,30.7,27.0,30.02,SW,218,2.0,3.0,86,0.00,,---,0.00,VWS V14.00,2013-02-24 16:20:00,
2013-02-24 11:25:00,30.7,27.0,30.02,WSW,249,2.0,2.0,86,0.00,,---,0.00,VWS V14.00,2013-02-24 16:25:00,
2013-02-24 11:30:00,30.6,26.6,30.02,WSW,248,0.0,4.0,85,0.00,,---,0.00,VWS V14.00,2013-02-24 16:30:00,
2013-02-24 11:35:00,30.6,26.6,30.02,SSW,197,2.0,4.0,85,0.00,,---,0.00,VWS V14.00,2013-02-24 16:35:00,
2013-02-24 11:40:00,30.5,26.5,30.02,South,179,3.0,5.0,85,0.00,,---,0.00,VWS V14.00,2013-02-24 16:40:00,
2013-02-24 11:45:00,30.5,26.5,30.03,West,275,0.0,1.0,85,0.00,,---,0.00,VWS V14.00,2013-02-24 16:45:00,
2013-02-24 11:50:00,30.5,26.5,30.03,West,271,0.0,4.0,85,0.00,,---,0.00,VWS V14.00,2013-02-24 16:50:00,
2013-02-24 11:55:00,30.4,26.4,30.03,NW,308,1.0,3.0,85,0.00,,---,0.00,VWS V14.00,2013-02-24 16:55:00,
2013-02-24 12:00:00,30.3,26.1,30.03,West,263,1.0,3.0,84,0.00,,---,0.00,VWS V14.00,2013-02-24 17:00:00,
2013-02-24 12:05:00,30.3,26.1,30.03,West,269,0.0,1.0,84,0.00,,---,0.00,VWS V14.00,2013-02-24 17:05:00,
2013-02-24 12:10:00,30.3,26.1,30.03,WNW,292,0.0,5.0,84,0.00,,---,0.00,VWS V14.00,2013-02-24 17:10:00,
2013-02-24 12:15:00,30.2,26.0,30.03,WSW,246,0.0,2.0,84,0.00,,---,0.00,VWS V14.00,2013-02-24 17:15:00,
2013-02-24 12:20:00,30.2,26.0,30.03,West,269,3.0,4.0,84,0.00,,---,0.00,VWS V14.00,2013-02-24 17:20:00,
2013-02-24 12:25:00,30.2,26.0,30.03,WSW,251,2.0,3.0,84,0.00,,---,0.00,VWS V14.00,2013-02-24 17:25:00,
2013-02-24 12:30:00,30.3,26.1,30.03,WSW,251,0.0,3.0,84,0.00,,---,0.00,VWS V14.00,2013-02-24 17:30:00,
2013-02-24 12:35:00,30.3,25.8,30.03,WNW,294,1.0,7.0,83,0.00,,---,0.00,VWS V14.00,2013-02-24 17:35:00,
2013-02-24 12:40:00,30.3,25.8,30.03,WSW,256,3.0,6.0,83,0.00,,---,0.00,VWS V14.00,2013-02-24 17:40:00,
2013-02-24 12:45:00,30.3,25.8,30.03,West,262,2.0,6.0,83,0.00,,---,0.00,VWS V14.00,2013-02-24 17:45:00,
2013-02-24 12:50:00,30.3,25.8,30.04,SW,227,0.0,3.0,83,0.00,,---,0.00,VWS V14.00,2013-02-24 17:50:00,
2013-02-24 12:55:00,30.3,25.8,30.04,NW,304,2.0,3.0,83,0.00,,---,0.00,VWS V14.00,2013-02-24 17:55:00,
2013-02-24 13:00:00,30.3,25.8,30.04,West,270,0.0,9.0,83,0.00,,---,0.00,VWS V14.00,2013-02-24 18:00:00,
2013-02-24 13:05:00,30.3,25.8,30.04,SW,227,2.0,6.0,83,0.00,,---,0.00,VWS V14.00,2013-02-24 18:05:00,
2013-02-24 13:10:00,30.3,25.8,30.04,South,180,4.0,4.0,83,0.00,,---,0.00,VWS V14.00,2013-02-24 18:10:00,
2013-02-24 13:15:00,30.3,25.8,30.04,WSW,242,0.0,6.0,83,0.00,,---,0.00,VWS V14.00,2013-02-24 18:15:00,
2013-02-24 13:20:00,30.3,25.8,30.04,West,278,0.0,4.0,83,0.00,,---,0.00,VWS V14.00,2013-02-24 18:20:00,
2013-02-24 13:25:00,30.3,25.5,30.04,South,186,0.0,2.0,82,0.00,,---,0.00,VWS V14.00,2013-02-24 18:25:00,
2013-02-24 13:30:00,30.4,25.6,30.04,WNW,282,0.0,4.0,82,0.00,,---,0.00,VWS V14.00,2013-02-24 18:30:00,
2013-02-24 13:35:00,30.5,25.7,30.04,WSW,246,1.0,1.0,82,0.00,,---,0.00,VWS V14.00,2013-02-24 18:35:00,
2013-02-24 13:40:00,30.5,25.4,30.05,WNW,288,2.0,5.0,81,0.00,,---,0.00,VWS V14.00,2013-02-24 18:40:00,
2013-02-24 13:45:00,30.6,25.5,30.05,WNW,301,2.0,8.0,81,0.00,,---,0.00,VWS V14.00,2013-02-24 18:45:00,
2013-02-24 13:50:00,30.5,25.4,30.05,WNW,284,8.0,9.0,81,0.00,,---,0.00,VWS V14.00,2013-02-24 18:50:00,
2013-02-24 13:55:00,30.4,25.0,30.05,WNW,288,0.0,3.0,80,0.00,,---,0.00,VWS V14.00,2013-02-24 18:55:00,
2013-02-24 14:00:00,30.4,25.3,30.05,NNW,329,0.0,0.0,81,0.00,,---,0.00,VWS V14.00,2013-02-24 19:00:00,
2013-02-24 14:05:00,30.4,25.3,30.05,South,177,0.0,1.0,81,0.00,,---,0.00,VWS V14.00,2013-02-24 19:05:00,
2013-02-24 14:10:00,30.3,25.2,30.05,West,278,1.0,2.0,81,0.00,,---,0.00,VWS V14.00,2013-02-24 19:10:00,
2013-02-24 14:15:00,30.2,25.1,30.06,South,181,0.0,5.0,81,0.00,,---,0.00,VWS V14.00,2013-02-24 19:15:00,
2013-02-24 14:20:00,30.0,25.2,30.06,West,279,0.0,2.0,82,0.00,,---,0.00,VWS V14.00,2013-02-24 19:20:00,
2013-02-24 14:25:00,29.8,25.0,30.06,WNW,294,0.0,3.0,82,0.00,,---,0.00,VWS V14.00,2013-02-24 19:25:00,
2013-02-24 14:30:00,29.8,25.0,30.06,WSW,240,3.0,3.0,82,0.00,,---,0.00,VWS V14.00,2013-02-24 19:30:00,
2013-02-24 14:35:00,29.6,24.8,30.06,SW,225,3.0,6.0,82,0.00,,---,0.00,VWS V14.00,2013-02-24 19:35:00,
2013-02-24 14:40:00,29.5,24.7,30.06,SW,223,0.0,1.0,82,0.00,,---,0.00,VWS V14.00,2013-02-24 19:40:00,
2013-02-24 14:45:00,29.4,24.9,30.07,SSW,192,3.0,5.0,83,0.00,,---,0.00,VWS V14.00,2013-02-24 19:45:00,
2013-02-24 14:50:00,29.4,24.6,30.07,West,266,0.0,3.0,82,0.00,,---,0.00,VWS V14.00,2013-02-24 19:50:00,
2013-02-24 14:55:00,29.5,24.7,30.07,West,281,0.0,3.0,82,0.00,,---,0.00,VWS V14.00,2013-02-24 19:55:00,
2013-02-24 15:00:00,29.5,24.7,30.07,SSW,204,2.0,5.0,82,0.00,,---,0.00,VWS V14.00,2013-02-24 20:00:00,
2013-02-24 15:05:00,29.6,24.8,30.07,SW,227,2.0,4.0,82,0.00,,---,0.00,VWS V14.00,2013-02-24 20:05:00,
2013-02-24 15:10:00,29.6,24.8,30.07,NNW,340,3.0,3.0,82,0.00,,---,0.00,VWS V14.00,2013-02-24 20:10:00,
2013-02-24 15:15:00,29.7,24.9,30.07,WSW,237,2.0,4.0,82,0.00,,---,0.00,VWS V14.00,2013-02-24 20:15:00,
2013-02-24 15:20:00,29.8,24.7,30.07,SSW,198,0.0,2.0,81,0.00,,---,0.00,VWS V14.00,2013-02-24 20:20:00,
2013-02-24 15:25:00,30.0,24.9,30.08,SSW,203,0.0,3.0,81,0.00,,---,0.00,VWS V14.00,2013-02-24 20:25:00,
2013-02-24 15:30:00,30.5,25.7,30.08,SSE,148,0.0,2.0,82,0.00,,---,0.00,VWS V14.00,2013-02-24 20:30:00,
2013-02-24 15:35:00,30.8,26.0,30.08,WSW,248,1.0,3.0,82,0.00,,---,0.00,VWS V14.00,2013-02-24 20:35:00,
2013-02-24 15:40:00,31.2,26.1,30.08,West,272,2.0,3.0,81,0.00,,---,0.00,VWS V14.00,2013-02-24 20:40:00,
2013-02-24 15:45:00,31.4,26.0,30.08,SSW,205,1.0,2.0,80,0.00,,---,0.00,VWS V14.00,2013-02-24 20:45:00,
2013-02-24 15:50:00,31.6,25.9,30.08,West,267,0.0,1.0,79,0.00,,---,0.00,VWS V14.00,2013-02-24 20:50:00,
2013-02-24 15:55:00,31.8,26.0,30.09,South,182,3.0,3.0,79,0.00,,---,0.00,VWS V14.00,2013-02-24 20:55:00,
2013-02-24 16:00:00,31.7,25.3,30.09,SE,140,2.0,5.0,77,0.00,,---,0.00,VWS V14.00,2013-02-24 21:00:00,
2013-02-24 16:05:00,31.5,24.8,30.09,West,273,2.0,5.0,76,0.00,,---,0.00,VWS V14.00,2013-02-24 21:05:00,
2013-02-24 16:10:00,31.3,24.3,30.09,West,270,0.0,6.0,75,0.00,,---,0.00,VWS V14.00,2013-02-24 21:10:00,
2013-02-24 16:15:00,31.2,24.5,30.09,WNW,294,3.0,3.0,76,0.00,,---,0.00,VWS V14.00,2013-02-24 21:15:00,
2013-02-24 16:20:00,31.1,24.4,30.09,WSW,246,0.0,9.0,76,0.00,,---,0.00,VWS V14.00,2013-02-24 21:20:00,
2013-02-24 16:25:00,31.0,24.3,30.09,West,267,0.0,4.0,76,0.00,,---,0.00,VWS V14.00,2013-02-24 21:25:00,
2013-02-24 16:30:00,31.0,24.3,30.10,SSW,204,3.0,4.0,76,0.00,,---,0.00,VWS V14.00,2013-02-24 21:30:00,
2013-02-24 16:35:00,30.9,24.2,30.10,NW,319,0.0,5.0,76,0.00,,---,0.00,VWS V14.00,2013-02-24 21:35:00,
2013-02-24 16:40:00,30.8,24.1,30.10,WSW,240,0.0,4.0,76,0.00,,---,0.00,VWS V14.00,2013-02-24 21:40:00,
2013-02-24 16:45:00,30.7,24.0,30.10,SSW,208,1.0,5.0,76,0.00,,---,0.00,VWS V14.00,2013-02-24 21:45:00,
2013-02-24 16:50:00,30.6,24.0,30.10,WSW,250,0.0,2.0,76,0.00,,---,0.00,VWS V14.00,2013-02-24 21:50:00,
2013-02-24 16:55:00,30.6,24.0,30.10,WSW,247,0.0,3.0,76,0.00,,---,0.00,VWS V14.00,2013-02-24 21:55:00,
2013-02-24 17:00:00,30.6,24.3,30.11,WNW,290,3.0,5.0,77,0.00,,---,0.00,VWS V14.00,2013-02-24 22:00:00,
2013-02-24 17:05:00,30.6,24.3,30.11,West,279,1.0,5.0,77,0.00,,---,0.00,VWS V14.00,2013-02-24 22:05:00,
2013-02-24 17:10:00,30.5,24.2,30.11,SE,144,0.0,3.0,77,0.00,,---,0.00,VWS V14.00,2013-02-24 22:10:00,
2013-02-24 17:15:00,30.5,24.5,30.12,West,269,0.0,0.0,78,0.00,,---,0.00,VWS V14.00,2013-02-24 22:15:00,
2013-02-24 17:20:00,30.5,24.5,30.12,South,175,0.0,0.0,78,0.00,,---,0.00,VWS V14.00,2013-02-24 22:20:00,
2013-02-24 17:25:00,30.4,24.4,30.12,SSW,212,0.0,2.0,78,0.00,,---,0.00,VWS V14.00,2013-02-24 22:25:00,
2013-02-24 17:30:00,30.4,24.4,30.12,SW,216,0.0,1.0,78,0.00,,---,0.00,VWS V14.00,2013-02-24 22:30:00,
2013-02-24 17:35:00,30.4,24.4,30.12,SW,229,1.0,3.0,78,0.00,,---,0.00,VWS V14.00,2013-02-24 22:35:00,
2013-02-24 17:40:00,30.3,24.3,30.12,SE,136,0.0,1.0,78,0.00,,---,0.00,VWS V14.00,2013-02-24 22:40:00,
2013-02-24 17:45:00,30.3,24.3,30.12,SSW,208,1.0,1.0,78,0.00,,---,0.00,VWS V14.00,2013-02-24 22:45:00,
2013-02-24 17:50:00,30.3,24.3,30.12,SE,136,0.0,0.0,78,0.00,,---,0.00,VWS V14.00,2013-02-24 22:50:00,
2013-02-24 17:55:00,30.3,24.3,30.12,SW,215,0.0,1.0,78,0.00,,---,0.00,VWS V14.00,2013-02-24 22:55:00,
2013-02-24 18:00:00,30.3,24.3,30.13,West,267,0.0,1.0,78,0.00,,---,0.00,VWS V14.00,2013-02-24 23:00:00,
2013-02-24 18:05:00,30.2,24.2,30.13,West,281,3.0,3.0,78,0.00,,---,0.00,VWS V14.00,2013-02-24 23:05:00,
2013-02-24 18:10:00,30.2,24.2,30.13,West,281,0.0,0.0,78,0.00,,---,0.00,VWS V14.00,2013-02-24 23:10:00,
2013-02-24 18:15:00,30.2,23.9,30.13,West,263,0.0,4.0,77,0.00,,---,0.00,VWS V14.00,2013-02-24 23:15:00,
2013-02-24 18:20:00,30.2,23.9,30.14,West,263,0.0,1.0,77,0.00,,---,0.00,VWS V14.00,2013-02-24 23:20:00,
2013-02-24 18:25:00,30.1,23.8,30.14,West,263,0.0,2.0,77,0.00,,---,0.00,VWS V14.00,2013-02-24 23:25:00,
2013-02-24 18:30:00,30.1,23.8,30.14,South,170,0.0,4.0,77,0.00,,---,0.00,VWS V14.00,2013-02-24 23:30:00,
2013-02-24 18:35:00,30.1,23.8,30.14,SW,221,0.0,1.0,77,0.00,,---,0.00,VWS V14.00,2013-02-24 23:35:00,
2013-02-24 18:40:00,30.1,23.8,30.14,West,276,0.0,2.0,77,0.00,,---,0.00,VWS V14.00,2013-02-24 23:40:00,
2013-02-24 18:45:00,30.0,23.7,30.14,West,276,0.0,0.0,77,0.00,,---,0.00,VWS V14.00,2013-02-24 23:45:00,
2013-02-24 18:50:00,30.0,23.7,30.15,West,276,0.0,0.0,77,0.00,,---,0.00,VWS V14.00,2013-02-24 23:50:00,
2013-02-24 18:55:00,30.0,23.7,30.15,West,276,0.0,0.0,77,0.00,,---,0.00,VWS V14.00,2013-02-24 23:55:00,
2013-02-24 19:00:00,29.9,23.6,30.15,West,276,0.0,0.0,77,0.00,,---,0.00,VWS V14.00,2013-02-25 00:00:00,
2013-02-24 19:05:00,29.9,23.9,30.15,West,276,0.0,0.0,78,0.00,,---,0.00,VWS V14.00,2013-02-25 00:05:00,
2013-02-24 19:10:00,29.9,23.9,30.15,West,276,0.0,0.0,78,0.00,,---,0.00,VWS V14.00,2013-02-25 00:10:00,
2013-02-24 19:15:00,29.9,23.9,30.16,West,276,0.0,0.0,78,0.00,,---,0.00,VWS V14.00,2013-02-25 00:15:00,
2013-02-24 19:20:00,29.8,23.8,30.16,West,276,0.0,0.0,78,0.00,,---,0.00,VWS V14.00,2013-02-25 00:20:00,
2013-02-24 19:25:00,29.8,23.8,30.16,West,276,0.0,0.0,78,0.00,,---,0.00,VWS V14.00,2013-02-25 00:25:00,
2013-02-24 19:30:00,29.8,23.8,30.16,West,276,0.0,0.0,78,0.00,,---,0.00,VWS V14.00,2013-02-25 00:30:00,
2013-02-24 19:35:00,29.8,23.8,30.17,West,276,0.0,0.0,78,0.00,,---,0.00,VWS V14.00,2013-02-25 00:35:00,
2013-02-24 19:40:00,29.8,23.8,30.17,West,276,0.0,0.0,78,0.00,,---,0.00,VWS V14.00,2013-02-25 00:40:00,
2013-02-24 19:45:00,29.7,23.7,30.17,West,276,0.0,0.0,78,0.00,,---,0.00,VWS V14.00,2013-02-25 00:45:00,
2013-02-24 19:50:00,29.7,24.0,30.17,West,276,0.0,0.0,79,0.00,,---,0.00,VWS V14.00,2013-02-25 00:50:00,
2013-02-24 19:55:00,29.7,23.7,30.16,West,276,0.0,0.0,78,0.00,,---,0.00,VWS V14.00,2013-02-25 00:55:00,
2013-02-24 20:00:00,29.7,24.0,30.16,West,276,0.0,0.0,79,0.00,,---,0.00,VWS V14.00,2013-02-25 01:00:00,
2013-02-24 20:05:00,29.7,24.0,30.17,West,276,0.0,0.0,79,0.00,,---,0.00,VWS V14.00,2013-02-25 01:05:00,
2013-02-24 20:10:00,29.7,24.0,30.17,West,276,0.0,1.0,79,0.00,,---,0.00,VWS V14.00,2013-02-25 01:10:00,
2013-02-24 20:15:00,29.6,23.9,30.17,West,276,0.0,0.0,79,0.00,,---,0.00,VWS V14.00,2013-02-25 01:15:00,
2013-02-24 20:20:00,29.6,23.9,30.17,West,276,0.0,0.0,79,0.00,,---,0.00,VWS V14.00,2013-02-25 01:20:00,
2013-02-24 20:25:00,29.6,23.9,30.17,West,276,0.0,0.0,79,0.00,,---,0.00,VWS V14.00,2013-02-25 01:25:00,
2013-02-24 20:30:00,29.6,23.9,30.17,West,276,0.0,0.0,79,0.00,,---,0.00,VWS V14.00,2013-02-25 01:30:00,
2013-02-24 20:35:00,29.6,23.9,30.17,West,276,0.0,0.0,79,0.00,,---,0.00,VWS V14.00,2013-02-25 01:35:00,
2013-02-24 20:40:00,29.6,23.9,30.17,West,276,0.0,0.0,79,0.00,,---,0.00,VWS V14.00,2013-02-25 01:40:00,
2013-02-24 20:45:00,29.6,23.9,30.17,West,276,0.0,0.0,79,0.00,,---,0.00,VWS V14.00,2013-02-25 01:45:00,
2013-02-24 20:50:00,29.6,23.9,30.17,West,276,0.0,2.0,79,0.00,,---,0.00,VWS V14.00,2013-02-25 01:50:00,
2013-02-24 20:55:00,29.6,23.9,30.17,West,276,0.0,0.0,79,0.00,,---,0.00,VWS V14.00,2013-02-25 01:55:00,
2013-02-24 21:00:00,29.6,23.9,30.17,West,276,0.0,0.0,79,0.00,,---,0.00,VWS V14.00,2013-02-25 02:00:00,
2013-02-24 21:05:00,29.6,23.9,30.17,West,276,0.0,0.0,79,0.00,,---,0.00,VWS V14.00,2013-02-25 02:05:00,
2013-02-24 21:10:00,29.6,23.9,30.17,SSW,198,0.0,0.0,79,0.00,,---,0.00,VWS V14.00,2013-02-25 02:10:00,
2013-02-24 21:15:00,29.7,24.0,30.17,SSW,198,0.0,0.0,79,0.00,,---,0.00,VWS V14.00,2013-02-25 02:15:00,
2013-02-24 21:20:00,29.7,24.0,30.17,SSW,198,0.0,0.0,79,0.00,,---,0.00,VWS V14.00,2013-02-25 02:20:00,
2013-02-24 21:25:00,29.7,23.7,30.17,SSW,198,0.0,0.0,78,0.00,,---,0.00,VWS V14.00,2013-02-25 02:25:00,
2013-02-24 21:30:00,29.7,23.7,30.17,SW,217,0.0,0.0,78,0.00,,---,0.00,VWS V14.00,2013-02-25 02:30:00,
2013-02-24 21:35:00,29.7,23.7,30.18,SW,217,0.0,0.0,78,0.00,,---,0.00,VWS V14.00,2013-02-25 02:35:00,
2013-02-24 21:40:00,29.7,23.7,30.17,SW,217,0.0,0.0,78,0.00,,---,0.00,VWS V14.00,2013-02-25 02:40:00,
2013-02-24 21:45:00,29.7,23.7,30.18,SW,217,0.0,0.0,78,0.00,,---,0.00,VWS V14.00,2013-02-25 02:45:00,
2013-02-24 21:50:00,29.8,23.8,30.17,SW,217,0.0,0.0,78,0.00,,---,0.00,VWS V14.00,2013-02-25 02:50:00,
2013-02-24 21:55:00,29.8,23.8,30.18,WNW,298,0.0,2.0,78,0.00,,---,0.00,VWS V14.00,2013-02-25 02:55:00,
2013-02-24 22:00:00,29.8,23.8,30.18,WNW,298,0.0,0.0,78,0.00,,---,0.00,VWS V14.00,2013-02-25 03:00:00,
2013-02-24 23:07:00,29.4,23.4,30.17,WNW,290,0.0,0.0,78,0.00,,---,0.00,VWS V14.00,2013-02-25 04:07:00,
2013-02-24 23:12:00,29.2,23.2,30.17,WNW,290,0.0,0.0,78,0.00,,---,0.00,VWS V14.00,2013-02-25 04:12:00,
2013-02-24 23:17:00,29.0,23.0,30.17,WNW,290,0.0,0.0,78,0.00,,---,0.00,VWS V14.00,2013-02-25 04:17:00,
2013-02-24 23:22:00,28.8,22.8,30.17,WNW,290,0.0,0.0,78,0.00,,---,0.00,VWS V14.00,2013-02-25 04:22:00,
2013-02-24 23:27:00,28.7,23.0,30.17,WNW,290,0.0,0.0,79,0.00,,---,0.00,VWS V14.00,2013-02-25 04:27:00,
2013-02-24 23:32:00,28.5,22.8,30.17,WNW,290,0.0,0.0,79,0.00,,---,0.00,VWS V14.00,2013-02-25 04:32:00,
2013-02-24 23:37:00,28.4,23.0,30.17,WNW,290,0.0,0.0,80,0.00,,---,0.00,VWS V14.00,2013-02-25 04:37:00,
2013-02-24 23:42:00,28.3,22.9,30.17,WNW,290,0.0,0.0,80,0.00,,---,0.00,VWS V14.00,2013-02-25 04:42:00,
2013-02-24 23:47:00,28.1,22.7,30.17,WNW,290,0.0,0.0,80,0.00,,---,0.00,VWS V14.00,2013-02-25 04:47:00,
2013-02-24 23:52:00,28.0,22.6,30.17,WNW,290,0.0,0.0,80,0.00,,---,0.00,VWS V14.00,2013-02-25 04:52:00,
2013-02-24 23:57:00,27.9,22.5,30.17,WNW,290,0.0,0.0,80,0.00,,---,0.00,VWS V14.00,2013-02-25 04:57:00,